Time;durP1;ratioP1;P1;durP2;ratioP2;P2;SDS_P1;SDS_P2;PMS_P1;PMS_P2;Temp;Humidity;BMP_temperature;BMP_pressure;BME280_temperature;BME280_humidity;BME280_pressure;Samples;Min_cycle;Max_cycle;Signal;HPM_P1;HPM_P2
2023/03/24 00:01:29;;;;;;;0.97;0.63;;;;;;;;;;4992886;28;20502;-69
2023/03/24 00:03:57;;;;;;;0.60;0.53;;;;;;;;;;4992144;28;20504;-67
2023/03/24 00:06:25;;;;;;;0.70;0.50;;;;;;;;;;4992996;28;20877;-68
2023/03/24 00:08:53;;;;;;;1.30;1.20;;;;;;;;;;4992505;28;20536;-67
2023/03/24 00:11:20;;;;;;;0.70;0.63;;;;;;;;;;4992150;28;20472;-68
2023/03/24 00:13:48;;;;;;;0.60;0.60;;;;;;;;;;4992163;28;20461;-68
2023/03/24 00:16:18;;;;;;;0.90;0.70;;;;;;;;;;4991758;28;20480;-68
2023/03/24 00:18:49;;;;;;;2.17;0.90;;;;;;;;;;4991411;28;20460;-68
2023/03/24 00:21:20;;;;;;;1.07;0.83;;;;;;;;;;4991524;28;20453;-67
2023/03/24 00:23:48;;;;;;;0.60;0.40;;;;;;;;;;4991941;28;20476;-68
2023/03/24 00:26:16;;;;;;;1.10;0.80;;;;;;;;;;4991329;28;20521;-67
2023/03/24 00:28:44;;;;;;;0.60;0.47;;;;;;;;;;4991376;28;20449;-68
2023/03/24 00:31:13;;;;;;;0.60;0.40;;;;;;;;;;4991119;28;20535;-68
2023/03/24 00:33:41;;;;;;;1.17;0.80;;;;;;;;;;4991768;28;20448;-68
2023/03/24 00:36:10;;;;;;;0.70;0.60;;;;;;;;;;4991197;28;20503;-68
2023/03/24 00:38:40;;;;;;;0.60;0.40;;;;;;;;;;4990921;28;20511;-68
2023/03/24 00:41:09;;;;;;;1.20;0.63;;;;;;;;;;4991176;28;20544;-68
2023/03/24 00:43:36;;;;;;;0.87;0.60;;;;;;;;;;4992581;28;20449;-68
2023/03/24 00:46:04;;;;;;;1.47;1.27;;;;;;;;;;4991360;28;20452;-68
2023/03/24 00:48:32;;;;;;;2.77;1.80;;;;;;;;;;4991427;28;20944;-68
2023/03/24 00:51:01;;;;;;;0.60;0.40;;;;;;;;;;4991199;28;21027;-69
2023/03/24 00:53:29;;;;;;;0.80;0.60;;;;;;;;;;4991893;28;20552;-68
2023/03/24 00:55:58;;;;;;;2.30;1.30;;;;;;;;;;4991472;28;20485;-68
2023/03/24 00:58:28;;;;;;;0.70;0.57;;;;;;;;;;4991417;28;20448;-69
2023/03/24 01:00:56;;;;;;;0.60;0.40;;;;;;;;;;4991217;28;20452;-68
2023/03/24 01:03:26;;;;;;;1.03;0.70;;;;;;;;;;4991868;28;20540;-68
2023/03/24 01:05:56;;;;;;;0.60;0.40;;;;;;;;;;4991623;28;20533;-70
2023/03/24 01:08:24;;;;;;;0.63;0.47;;;;;;;;;;4991540;28;20880;-69
2023/03/24 01:10:52;;;;;;;0.60;0.50;;;;;;;;;;4991064;28;20477;-68
2023/03/24 01:13:22;;;;;;;0.70;0.60;;;;;;;;;;4991112;28;20833;-68
2023/03/24 01:15:49;;;;;;;1.23;0.90;;;;;;;;;;4991392;28;20584;-68
2023/03/24 01:18:17;;;;;;;0.60;0.40;;;;;;;;;;4989952;28;20718;-68
2023/03/24 01:20:45;;;;;;;1.20;0.80;;;;;;;;;;4991234;28;20449;-68
2023/03/24 01:23:13;;;;;;;0.70;0.60;;;;;;;;;;4990581;28;20453;-68
2023/03/24 01:25:44;;;;;;;0.60;0.40;;;;;;;;;;4990649;28;20457;-68
2023/03/24 01:28:11;;;;;;;2.07;1.07;;;;;;;;;;4990062;28;20476;-68
2023/03/24 01:30:40;;;;;;;0.60;0.40;;;;;;;;;;4978024;28;20548;-70
2023/03/24 01:33:07;;;;;;;0.60;0.50;;;;;;;;;;4990116;28;20528;-67
2023/03/24 01:35:34;;;;;;;0.70;0.60;;;;;;;;;;4990882;28;20499;-67
2023/03/24 01:38:02;;;;;;;1.00;0.70;;;;;;;;;;4989393;28;20871;-68
2023/03/24 01:40:30;;;;;;;0.60;0.40;;;;;;;;;;4990834;28;20551;-68
2023/03/24 01:42:57;;;;;;;0.60;0.40;;;;;;;;;;4990520;28;20536;-68
2023/03/24 01:45:49;;;;;;;0.80;0.50;;;;;;;;;;4991224;28;20452;-68
2023/03/24 01:48:19;;;;;;;0.60;0.50;;;;;;;;;;4974974;28;20548;-68
2023/03/24 01:50:48;;;;;;;0.90;0.50;;;;;;;;;;4990028;28;20951;-68
2023/03/24 01:53:15;;;;;;;0.60;0.40;;;;;;;;;;4990471;28;20880;-68
2023/03/24 01:55:44;;;;;;;1.33;0.67;;;;;;;;;;4990493;28;20551;-68
2023/03/24 01:58:11;;;;;;;0.93;0.60;;;;;;;;;;4989452;28;20868;-68
2023/03/24 02:00:40;;;;;;;0.60;0.40;;;;;;;;;;4990190;28;20484;-70
2023/03/24 02:03:09;;;;;;;0.70;0.40;;;;;;;;;;4989303;28;20535;-68
2023/03/24 02:05:39;;;;;;;0.60;0.40;;;;;;;;;;4990133;28;20495;-68
2023/03/24 02:08:08;;;;;;;0.70;0.50;;;;;;;;;;4989554;28;20893;-68
2023/03/24 02:10:36;;;;;;;0.77;0.50;;;;;;;;;;4989954;28;20567;-67
2023/03/24 02:13:04;;;;;;;0.70;0.70;;;;;;;;;;4989466;28;20995;-69
2023/03/24 02:15:32;;;;;;;0.63;0.50;;;;;;;;;;4990293;28;20572;-69
2023/03/24 02:18:03;;;;;;;0.60;0.50;;;;;;;;;;4988742;28;20952;-68
2023/03/24 02:20:53;;;;;;;0.80;0.80;;;;;;;;;;4990405;28;20450;-69
2023/03/24 02:23:37;;;;;;;0.70;0.60;;;;;;;;;;4989793;28;20528;-68
2023/03/24 02:26:18;;;;;;;0.60;0.40;;;;;;;;;;4989425;28;20524;-69
2023/03/24 02:28:50;;;;;;;0.60;0.40;;;;;;;;;;4990093;28;20440;-67
2023/03/24 02:31:23;;;;;;;1.10;1.00;;;;;;;;;;4990119;28;20476;-68
2023/03/24 02:34:05;;;;;;;0.93;0.73;;;;;;;;;;4990168;28;20453;-69
2023/03/24 02:36:51;;;;;;;3.07;0.50;;;;;;;;;;4989848;28;20503;-68
2023/03/24 02:39:26;;;;;;;2.90;0.80;;;;;;;;;;4989507;28;20582;-70
2023/03/24 02:41:58;;;;;;;0.63;0.63;;;;;;;;;;4989744;28;20451;-69
2023/03/24 02:44:30;;;;;;;0.70;0.70;;;;;;;;;;4990572;28;20447;-68
2023/03/24 02:47:01;;;;;;;0.60;0.50;;;;;;;;;;4989449;28;21018;-68
2023/03/24 02:49:31;;;;;;;1.33;1.23;;;;;;;;;;4990183;28;20499;-69
2023/03/24 02:52:01;;;;;;;0.70;0.50;;;;;;;;;;4989776;28;20548;-69
2023/03/24 02:54:32;;;;;;;1.83;1.70;;;;;;;;;;4990090;28;20960;-69
2023/03/24 02:57:03;;;;;;;0.60;0.50;;;;;;;;;;4989534;28;20437;-69
2023/03/24 02:59:33;;;;;;;0.60;0.53;;;;;;;;;;4990339;28;20540;-68
2023/03/24 03:02:02;;;;;;;0.60;0.50;;;;;;;;;;4991477;28;20532;-69
2023/03/24 03:04:31;;;;;;;0.87;0.70;;;;;;;;;;4993674;28;20459;-68
2023/03/24 03:07:00;;;;;;;0.60;0.50;;;;;;;;;;4992701;28;20469;-69
2023/03/24 03:09:28;;;;;;;0.60;0.40;;;;;;;;;;4993256;28;20571;-68
2023/03/24 03:11:58;;;;;;;0.60;0.40;;;;;;;;;;4993123;28;20524;-71
2023/03/24 03:14:29;;;;;;;0.60;0.60;;;;;;;;;;4981089;28;20540;-69
2023/03/24 03:17:00;;;;;;;0.60;0.40;;;;;;;;;;4992307;28;20492;-70
2023/03/24 03:19:30;;;;;;;0.60;0.40;;;;;;;;;;4993113;28;21008;-69
2023/03/24 03:21:59;;;;;;;0.70;0.57;;;;;;;;;;4992811;28;20524;-69
2023/03/24 03:24:28;;;;;;;0.57;0.30;;;;;;;;;;4993502;28;20448;-69
2023/03/24 03:26:59;;;;;;;0.60;0.40;;;;;;;;;;4992526;28;20539;-70
2023/03/24 03:29:28;;;;;;;1.20;0.90;;;;;;;;;;4993165;28;20445;-69
2023/03/24 03:32:04;;;;;;;0.70;0.57;;;;;;;;;;4992774;28;20547;-71
2023/03/24 03:34:35;;;;;;;0.77;0.60;;;;;;;;;;4993233;28;20443;-69
2023/03/24 03:37:04;;;;;;;0.60;0.60;;;;;;;;;;4991830;28;20487;-68
2023/03/24 03:39:34;;;;;;;0.70;0.50;;;;;;;;;;4993047;28;20477;-69
2023/03/24 03:42:02;;;;;;;0.60;0.40;;;;;;;;;;4992448;28;20449;-69
2023/03/24 03:44:30;;;;;;;1.90;0.60;;;;;;;;;;4993032;28;20532;-68
2023/03/24 03:46:57;;;;;;;0.70;0.50;;;;;;;;;;4992593;28;20879;-68
2023/03/24 03:49:24;;;;;;;1.00;0.63;;;;;;;;;;4993059;28;20527;-69
2023/03/24 03:51:54;;;;;;;0.60;0.50;;;;;;;;;;4993423;28;20453;-69
2023/03/24 03:54:22;;;;;;;0.80;0.60;;;;;;;;;;4993228;28;20809;-69
2023/03/24 03:56:51;;;;;;;0.60;0.50;;;;;;;;;;4992736;28;20580;-69
2023/03/24 03:59:28;;;;;;;2.10;0.80;;;;;;;;;;4992982;28;20525;-69
2023/03/24 04:01:56;;;;;;;0.60;0.50;;;;;;;;;;4992363;28;20459;-69
2023/03/24 04:04:40;;;;;;;0.90;0.60;;;;;;;;;;4992484;28;20952;-69
2023/03/24 04:07:13;;;;;;;1.73;0.50;;;;;;;;;;4992257;28;20798;-68
2023/03/24 04:09:45;;;;;;;0.63;0.60;;;;;;;;;;4992690;28;20512;-68
2023/03/24 04:12:19;;;;;;;1.20;1.17;;;;;;;;;;4991508;28;20507;-68
2023/03/24 04:15:02;;;;;;;3.23;0.67;;;;;;;;;;4992404;28;20469;-68
2023/03/24 04:17:36;;;;;;;0.60;0.40;;;;;;;;;;4991710;28;20448;-69
2023/03/24 04:20:10;;;;;;;0.60;0.50;;;;;;;;;;4991235;28;20440;-68
2023/03/24 04:22:44;;;;;;;0.60;0.40;;;;;;;;;;4992187;28;20445;-68
2023/03/24 04:25:14;;;;;;;0.60;0.40;;;;;;;;;;4991581;28;20486;-68
2023/03/24 04:27:45;;;;;;;1.27;0.50;;;;;;;;;;4991929;28;20453;-68
2023/03/24 04:30:16;;;;;;;0.87;0.60;;;;;;;;;;4991160;28;21300;-68
2023/03/24 04:32:47;;;;;;;0.50;0.40;;;;;;;;;;4992253;28;20528;-68
2023/03/24 04:35:25;;;;;;;0.60;0.40;;;;;;;;;;4991257;28;20524;-68
2023/03/24 04:37:53;;;;;;;0.80;0.40;;;;;;;;;;4991639;28;20937;-68
2023/03/24 04:40:21;;;;;;;0.70;0.50;;;;;;;;;;4991397;28;20940;-68
2023/03/24 04:42:51;;;;;;;0.60;0.50;;;;;;;;;;4992259;28;20457;-68
2023/03/24 04:45:24;;;;;;;0.63;0.40;;;;;;;;;;4992727;28;20458;-70
2023/03/24 04:47:52;;;;;;;1.00;0.53;;;;;;;;;;4992100;28;20445;-67
2023/03/24 04:50:29;;;;;;;0.70;0.50;;;;;;;;;;4991779;28;20449;-68
2023/03/24 04:52:57;;;;;;;0.97;0.87;;;;;;;;;;4991544;28;20449;-67
2023/03/24 04:55:32;;;;;;;0.97;0.60;;;;;;;;;;4991761;28;20452;-69
2023/03/24 04:57:59;;;;;;;0.50;0.40;;;;;;;;;;4990677;28;20465;-68
2023/03/24 05:00:28;;;;;;;0.53;0.47;;;;;;;;;;4992138;28;20461;-68
2023/03/24 05:02:55;;;;;;;0.53;0.40;;;;;;;;;;4991132;28;20939;-68
2023/03/24 05:05:22;;;;;;;0.67;0.50;;;;;;;;;;4991836;28;20453;-68
2023/03/24 05:07:49;;;;;;;0.93;0.80;;;;;;;;;;4991343;28;20454;-68
2023/03/24 05:10:18;;;;;;;0.60;0.40;;;;;;;;;;4990710;28;20572;-68
2023/03/24 05:12:44;;;;;;;0.70;0.50;;;17.10;1.00;;;;;;4978281;28;20463;-68
2023/03/24 05:15:12;;;;;;;3.50;1.67;;;;;;;;;;4990433;28;20457;-68
2023/03/24 05:17:41;;;;;;;0.80;0.67;;;;;;;;;;4990961;28;20448;-69
2023/03/24 05:20:09;;;;;;;0.70;0.53;;;;;;;;;;4990035;28;20449;-68
2023/03/24 05:22:37;;;;;;;0.57;0.40;;;;;;;;;;4991209;28;20460;-68
2023/03/24 05:25:04;;;;;;;0.60;0.50;;;;;;;;;;4990323;28;20467;-68
2023/03/24 05:27:31;;;;;;;0.60;0.40;;;;;;;;;;4990884;28;20544;-68
2023/03/24 05:29:58;;;;;;;0.80;0.70;;;;;;;;;;4989907;28;20445;-70
2023/03/24 05:32:26;;;;;;;0.70;0.50;;;;;;;;;;4991009;28;20457;-68
2023/03/24 05:34:54;;;;;;;0.60;0.50;;;;;;;;;;4990703;28;20468;-70
2023/03/24 05:37:21;;;;;;;1.07;0.50;;;;;;;;;;4990274;28;20485;-68
2023/03/24 05:39:48;;;;;;;0.70;0.70;;;;;;;;;;4990946;28;20471;-68
2023/03/24 05:42:16;;;;;;;0.70;0.50;;;;;;;;;;4990326;28;20445;-69
2023/03/24 05:44:44;;;;;;;0.90;0.70;;;;;;;;;;4990936;28;20449;-68
2023/03/24 05:47:12;;;;;;;0.70;0.63;;;;;;;;;;4990007;28;20487;-68
2023/03/24 05:49:39;;;;;;;0.60;0.40;;;;;;;;;;4990595;28;20472;-69
2023/03/24 05:52:08;;;;;;;0.80;0.60;;;;;;;;;;4990250;28;20457;-68
2023/03/24 05:54:35;;;;;;;0.60;0.40;;;;;;;;;;4991040;28;20536;-68
2023/03/24 05:57:02;;;;;;;0.60;0.40;;;;;;;;;;4989608;28;20590;-68
2023/03/24 05:59:29;;;;;;;1.17;1.00;;;;;;;;;;4990967;28;20485;-68
2023/03/24 06:01:57;;;;;;;0.60;0.40;;;;;;;;;;4990479;28;20503;-68
2023/03/24 06:04:28;;;;;;;0.80;0.60;;;;;;;;;;4990536;28;20823;-68
2023/03/24 06:06:57;;;;;;;0.60;0.50;;;;;;;;;;4989713;28;20505;-68
2023/03/24 06:09:28;;;;;;;1.13;0.73;;;;;;;;;;4990537;28;20485;-69
2023/03/24 06:11:55;;;;;;;0.60;0.40;;;;;;;;;;4989923;28;20524;-70
2023/03/24 06:14:22;;;;;;;0.63;0.53;;;;;;;;;;4990660;28;20452;-68
2023/03/24 06:16:49;;;;;;;0.60;0.40;;;;;;;;;;4989938;28;20523;-69
2023/03/24 06:19:17;;;;;;;1.20;0.90;;;;;;;;;;4982741;28;20465;-68
2023/03/24 06:21:49;;;;;;;0.70;0.50;;;;;;;;;;4971260;28;20446;-68
2023/03/24 06:24:16;;;;;;;0.70;0.60;;;;;;;;;;4989719;28;20449;-67
2023/03/24 06:26:48;;;;;;;0.67;0.50;;;;;;;;;;4989765;28;21037;-68
2023/03/24 06:29:16;;;;;;;0.60;0.50;;;;;;;;;;4989836;28;20437;-69
2023/03/24 06:31:43;;;;;;;0.80;0.60;;;;;;;;;;4990177;28;20461;-68
2023/03/24 06:34:11;;;;;;;0.70;0.50;;;;;;;;;;4989171;28;20450;-68
2023/03/24 06:36:39;;;;;;;0.60;0.40;;;;;;;;;;4990966;28;20488;-70
2023/03/24 06:39:06;;;;;;;0.97;0.87;;;;;;;;;;4993365;28;20959;-69
2023/03/24 06:41:34;;;;;;;0.70;0.67;;;;;;;;;;4994262;28;20812;-69
2023/03/24 06:44:02;;;;;;;2.20;0.90;;;;;;;;;;4993537;28;20536;-68
2023/03/24 06:46:29;;;;;;;0.60;0.40;;;;;;;;;;4993697;28;20900;-68
2023/03/24 06:48:56;;;;;;;0.60;0.40;;;;;;;;;;4993791;28;20449;-69
2023/03/24 06:51:23;;;;;;;0.77;0.50;;;;;;;;;;4994064;28;20461;-68
2023/03/24 06:53:51;;;;;;;0.70;0.50;;;;;;;;;;4994552;28;20449;-68
2023/03/24 06:56:19;;;;;;;1.13;0.97;;;;;;;;;;4993960;28;20488;-70
2023/03/24 06:58:47;;;;;;;0.60;0.50;;;;;;;;;;4994340;28;20456;-68
2023/03/24 07:01:16;;;;;;;0.60;0.40;;;;;;;;;;4993630;28;20453;-68
2023/03/24 07:03:43;;;;;;;0.90;0.57;;;;;;;;;;4993350;28;20459;-68
2023/03/24 07:06:10;;;;;;;0.70;0.50;;;;;;;;;;4992664;28;20528;-68
2023/03/24 07:08:37;;;;;;;0.80;0.50;;;;;;;;;;4994265;28;20453;-68
2023/03/24 07:11:05;;;;;;;0.80;0.70;;;;;;;;;;4992866;28;20472;-68
2023/03/24 07:13:32;;;;;;;0.90;0.80;;;;;;;;;;4993173;28;21012;-69
2023/03/24 07:16:00;;;;;;;0.70;0.70;;;;;;;;;;4979202;28;21048;-69
2023/03/24 07:18:28;;;;;;;1.07;0.60;;;;;;;;;;4993327;28;20461;-69
2023/03/24 07:20:55;;;;;;;0.57;0.40;;;;;;;;;;4992766;28;20461;-71
2023/03/24 07:23:24;;;;;;;0.60;0.40;;;;;;;;;;4993123;28;20602;-70
2023/03/24 07:25:51;;;;;;;0.87;0.70;;;;;;;;;;4993110;28;20464;-69
2023/03/24 07:28:18;;;;;;;0.93;0.70;;;;;;;;;;4992660;28;20468;-71
2023/03/24 07:30:45;;;;;;;0.90;0.80;;;;;;;;;;4993079;28;20457;-68
2023/03/24 07:33:12;;;;;;;1.17;1.07;;;;;;;;;;4992523;28;20459;-69
2023/03/24 07:35:41;;;;;;;0.60;0.50;;;;;;;;;;4992977;28;20453;-69
2023/03/24 07:38:09;;;;;;;1.00;0.50;;;;;;;;;;4992114;28;20523;-70
2023/03/24 07:40:36;;;;;;;0.60;0.50;;;;;;;;;;4993201;28;20476;-69
2023/03/24 07:43:04;;;;;;;0.70;0.40;;;;;;;;;;4992632;28;20453;-68
2023/03/24 07:45:31;;;;;;;0.70;0.50;;;;;;;;;;4993496;28;20456;-69
2023/03/24 07:48:00;;;;;;;0.60;0.50;;;;;;;;;;4990655;28;20449;-71
2023/03/24 07:50:28;;;;;;;0.60;0.40;;;;;;;;;;4992892;28;21024;-69
2023/03/24 07:52:56;;;;;;;0.80;0.50;;;;;;;;;;4992064;28;20445;-69
2023/03/24 07:55:23;;;;;;;0.70;0.50;;;;;;;;;;4992729;28;20445;-69
2023/03/24 07:57:51;;;;;;;0.90;0.50;;;;;;;;;;4991343;28;20492;-69
2023/03/24 08:00:20;;;;;;;0.67;0.50;;;;;;;;;;4992709;28;20452;-69
2023/03/24 08:02:48;;;;;;;0.97;0.87;;;;;;;;;;4993064;28;20455;-68
2023/03/24 08:05:18;;;;;;;0.80;0.57;;;;;;;;;;4992388;28;20457;-68
2023/03/24 08:07:49;;;;;;;0.80;0.73;;;;;;;;;;4992252;28;20871;-67
2023/03/24 08:10:17;;;;;;;0.60;0.40;;;;;;;;;;4992159;28;20495;-69
2023/03/24 08:12:45;;;;;;;0.87;0.70;;;;;;;;;;4979988;28;20445;-68
2023/03/24 08:15:13;;;;;;;2.30;0.50;;;;;;;;;;4991426;28;20536;-69
2023/03/24 08:17:40;;;;;;;0.70;0.40;;;;;;;;;;4991887;28;20492;-69
2023/03/24 08:20:13;;;;;;;0.70;0.57;;;;;;;;;;4991270;28;20449;-70
2023/03/24 08:22:41;;;;;;;0.60;0.50;;;;;;;;;;4992026;28;21013;-70
2023/03/24 08:25:08;;;;;;;0.70;0.57;;;;;;;;;;4991547;28;20480;-70
2023/03/24 08:27:37;;;;;;;0.60;0.40;;;;;;;;;;4991829;28;20463;-70
2023/03/24 08:30:06;;;;;;;1.13;1.03;;;;;;;;;;4991603;28;20465;-69
2023/03/24 08:32:33;;;;;;;0.80;0.60;;;;;;;;;;4992286;28;20856;-70
2023/03/24 08:35:01;;;;;;;0.60;0.40;;;;;;;;;;4990727;28;20449;-70
2023/03/24 08:37:28;;;;;;;0.97;0.87;;;;;;;;;;4991631;28;20582;-69
2023/03/24 08:39:57;;;;;;;0.70;0.40;;;;;;;;;;4991234;28;20461;-73
2023/03/24 08:42:25;;;;;;;0.80;0.80;;;;;;;;;;4991911;28;20547;-69
2023/03/24 08:44:53;;;;;;;0.70;0.50;;;;;;;;;;4992015;28;20834;-70
2023/03/24 08:47:20;;;;;;;0.70;0.60;;;;;;;;;;4990878;28;20468;-70
2023/03/24 08:49:47;;;;;;;0.60;0.50;;;;;;;;;;4991642;28;20476;-68
2023/03/24 08:52:15;;;;;;;0.70;0.67;;;;;;;;;;4991405;28;20457;-68
2023/03/24 08:54:42;;;;;;;2.00;1.80;;;;;;;;;;4991873;28;20564;-70
2023/03/24 08:57:09;;;;;;;1.00;0.90;;;;;;;;;;4990659;28;21030;-68
2023/03/24 08:59:36;;;;;;;0.60;0.43;;;;;;;;;;4991672;28;20461;-68
2023/03/24 09:02:04;;;;;;;1.90;0.90;;;;;;;;;;4991559;28;20450;-69
2023/03/24 09:04:32;;;;;;;0.70;0.50;;;;;;;;;;4991653;28;20813;-68
2023/03/24 09:06:59;;;;;;;0.70;0.60;;;;;;;;;;4990945;28;20457;-70
2023/03/24 09:09:27;;;;;;;0.60;0.40;;;;;;;;;;4991299;28;20499;-73
2023/03/24 09:11:55;;;;;;;1.57;0.50;;;;;;;;;;4990085;28;20448;-74
2023/03/24 09:14:22;;;;;;;0.60;0.50;;;;;;;;;;4990594;28;20815;-72
2023/03/24 09:16:50;;;;;;;0.60;0.40;;;;;;;;;;4990907;28;20488;-69
2023/03/24 09:19:18;;;;;;;0.60;0.40;;;;;;;;;;4990485;28;20584;-70
2023/03/24 09:21:46;;;;;;;0.73;0.63;;;;;;;;;;4991160;28;20453;-73
2023/03/24 09:24:14;;;;;;;0.70;0.60;;;;;;;;;;4990259;28;20468;-72
2023/03/24 09:26:41;;;;;;;0.70;0.50;;;;;;;;;;4986009;28;20449;-71
2023/03/24 09:29:08;;;;;;;0.67;0.50;;;;;;;;;;4989767;28;20453;-72
2023/03/24 09:31:35;;;;;;;0.60;0.40;;;;;;;;;;4990763;28;20464;-71
2023/03/24 09:34:03;;;;;;;1.37;0.73;;;;;;;;;;4988061;28;20455;-72
2023/03/24 09:36:31;;;;;;;1.67;0.90;;;;;;;;;;4990018;28;21067;-70
2023/03/24 09:38:58;;;;;;;0.70;0.60;;;;;;;;;;4989447;28;20480;-73
2023/03/24 09:41:27;;;;;;;0.70;0.40;;;;;;;;;;4990601;28;20461;-72
2023/03/24 09:43:57;;;;;;;0.60;0.40;;;;;;;;;;4989615;28;20448;-71
2023/03/24 09:46:27;;;;;;;0.70;0.50;;;;;;;;;;4990550;28;20517;-71
2023/03/24 09:48:55;;;;;;;0.60;0.50;;;;;;;;;;4990155;28;20461;-72
2023/03/24 09:51:24;;;;;;;0.70;0.50;;;;;;;;;;4990571;28;20500;-72
2023/03/24 09:53:58;;;;;;;0.60;0.40;;;;;;;;;;4990494;28;20476;-71
2023/03/24 09:56:28;;;;;;;0.60;0.40;;;;;;;;;;4986215;28;20445;-71
2023/03/24 09:59:01;;;;;;;0.70;0.40;;;;;;;;;;4987428;28;20543;-72
2023/03/24 10:01:28;;;;;;;0.60;0.40;;;15.30;99.90;;;;;;4989606;28;20453;-70
2023/03/24 10:03:57;;;;;;;0.80;0.63;;;15.40;37.50;;;;;;4989802;28;20453;-73
2023/03/24 10:06:28;;;;;;;0.60;0.40;;;15.40;27.80;;;;;;4988107;28;20441;-72
2023/03/24 10:09:12;;;;;;;1.23;0.80;;;15.70;99.90;;;;;;4989434;28;20819;-73
2023/03/24 10:11:45;;;;;;;0.60;0.40;;;16.10;99.90;;;;;;4989487;28;20511;-73
2023/03/24 10:14:23;;;;;;;0.60;0.40;;;16.00;1.00;;;;;;4987778;28;20453;-73
2023/03/24 10:16:56;;;;;;;0.60;0.40;;;16.20;1.00;;;;;;4990147;28;20461;-72
2023/03/24 10:19:37;;;;;;;0.60;0.50;;;16.10;1.00;;;;;;4989424;28;20536;-71
2023/03/24 10:22:06;;;;;;;0.60;0.50;;;;;;;;;;4989217;28;20452;-71
2023/03/24 10:24:40;;;;;;;0.80;0.67;;;;;;;;;;4989603;28;20453;-72
2023/03/24 10:27:12;;;;;;;0.60;0.40;;;;;;;;;;4989081;28;20477;-71
2023/03/24 10:29:40;;;;;;;0.90;0.60;;;;;;;;;;4989816;28;20449;-70
2023/03/24 10:32:12;;;;;;;0.70;0.50;;;;;;;;;;4989610;28;20449;-72
2023/03/24 10:34:41;;;;;;;0.70;0.50;;;;;;;;;;4989380;28;20449;-70
2023/03/24 10:37:10;;;;;;;1.23;0.80;;;16.10;99.90;;;;;;4988806;28;20456;-70
2023/03/24 10:39:39;;;;;;;0.60;0.50;;;16.60;1.00;;;;;;4988747;28;20457;-70
2023/03/24 10:42:06;;;;;;;0.60;0.40;;;16.80;1.00;;;;;;4989074;28;20543;-70
2023/03/24 10:44:33;;;;;;;0.60;0.50;;;;;;;;;;4989551;28;20960;-70
2023/03/24 10:47:07;;;;;;;0.90;0.70;;;16.70;1.00;;;;;;4988593;28;20464;-70
2023/03/24 10:49:34;;;;;;;0.60;0.40;;;16.40;1.00;;;;;;4989648;28;20457;-70
2023/03/24 10:52:03;;;;;;;0.80;0.67;;;16.50;1.00;;;;;;4988784;28;20458;-70
2023/03/24 10:54:31;;;;;;;0.80;0.50;;;;;;;;;;4989766;28;20499;-70
2023/03/24 10:57:04;;;;;;;0.60;0.40;;;;;;;;;;4989016;28;20447;-71
2023/03/24 10:59:35;;;;;;;0.70;0.50;;;16.50;1.00;;;;;;4989749;28;20479;-71
2023/03/24 11:02:06;;;;;;;0.60;0.40;;;;;;;;;;4989921;28;20445;-71
2023/03/24 11:04:33;;;;;;;0.60;0.40;;;;;;;;;;4989591;28;20453;-71
2023/03/24 11:07:05;;;;;;;0.60;0.40;;;;;;;;;;4989314;28;20484;-71
2023/03/24 11:09:39;;;;;;;0.60;0.40;;;;;;;;;;4989613;28;20488;-71
2023/03/24 11:12:20;;;;;;;0.70;0.50;;;;;;;;;;4988765;28;20449;-70
2023/03/24 11:14:47;;;;;;;0.60;0.40;;;;;;;;;;4988476;28;20523;-71
2023/03/24 11:17:15;;;;;;;0.60;0.40;;;;;;;;;;4984743;28;20580;-70
2023/03/24 11:19:51;;;;;;;0.60;0.40;;;;;;;;;;4982721;28;21290;-71
2023/03/24 11:22:18;;;;;;;0.60;0.40;;;;;;;;;;4989757;28;20515;-71
2023/03/24 11:24:47;;;;;;;0.77;0.57;;;;;;;;;;4992554;28;20453;-71
2023/03/24 11:27:17;;;;;;;0.60;0.43;;;;;;;;;;4992219;28;20453;-71
2023/03/24 11:29:49;;;;;;;0.60;0.40;;;16.30;1.00;;;;;;4991931;28;20445;-70
2023/03/24 11:32:19;;;;;;;0.60;0.40;;;;;;;;;;4979839;28;20515;-70
2023/03/24 11:34:47;;;;;;;0.60;0.50;;;;;;;;;;4992098;28;21036;-69
2023/03/24 11:37:16;;;;;;;0.60;0.50;;;;;;;;;;4988224;28;20947;-70
2023/03/24 11:39:44;;;;;;;0.60;0.50;;;;;;;;;;4987212;28;20963;-69
2023/03/24 11:42:17;;;;;;;1.00;0.67;;;;;;;;;;4988372;28;20445;-70
2023/03/24 11:44:48;;;;;;;0.60;0.50;;;;;;;;;;4992774;28;20452;-70
2023/03/24 11:47:20;;;;;;;0.60;0.40;;;;;;;;;;4991608;28;20484;-70
2023/03/24 11:49:49;;;;;;;1.50;0.80;;;;;;;;;;4991968;28;20481;-70
2023/03/24 11:52:21;;;;;;;0.60;0.40;;;;;;;;;;4989463;28;20445;-70
2023/03/24 11:54:48;;;;;;;0.70;0.50;;;;;;;;;;4991732;28;20439;-70
2023/03/24 11:57:19;;;;;;;0.60;0.40;;;;;;;;;;4991765;28;20445;-70
2023/03/24 11:59:49;;;;;;;0.60;0.50;;;;;;;;;;4990321;28;20944;-71
2023/03/24 12:02:21;;;;;;;0.63;0.57;;;;;;;;;;4991410;28;20956;-72
2023/03/24 12:05:04;;;;;;;0.60;0.40;;;;;;;;;;4990032;28;20464;-73
2023/03/24 12:07:46;;;;;;;0.60;0.40;;;;;;;;;;4988292;28;20463;-70
2023/03/24 12:10:18;;;;;;;0.60;0.40;;;;;;;;;;4989520;28;20647;-70
2023/03/24 12:12:52;;;;;;;1.00;0.50;;;;;;;;;;4990483;28;20480;-69
2023/03/24 12:15:31;;;;;;;0.60;0.40;;;;;;;;;;4990678;28;20460;-69
2023/03/24 12:18:04;;;;;;;0.60;0.40;;;;;;;;;;4991262;28;21038;-69
2023/03/24 12:20:34;;;;;;;0.60;0.40;;;;;;;;;;4991287;28;20468;-68
2023/03/24 12:23:05;;;;;;;0.73;0.50;;;;;;;;;;4990354;28;21228;-68
2023/03/24 12:25:50;;;;;;;0.50;0.40;;;;;;;;;;4991114;28;20962;-68
2023/03/24 12:28:29;;;;;;;0.60;0.40;;;;;;;;;;4991112;28;20549;-71
2023/03/24 12:31:01;;;;;;;0.70;0.60;;;;;;;;;;4991261;28;20449;-71
2023/03/24 12:33:37;;;;;;;0.60;0.40;;;;;;;;;;4990533;28;20960;-69
2023/03/24 12:36:14;;;;;;;0.57;0.40;;;;;;;;;;4989537;28;20453;-69
2023/03/24 12:38:52;;;;;;;0.60;0.40;;;;;;;;;;4990926;28;20558;-69
2023/03/24 12:41:35;;;;;;;1.10;0.50;;;;;;;;;;4981620;28;20454;-69
2023/03/24 12:44:10;;;;;;;0.60;0.40;;;;;;;;;;4991562;28;20798;-69
2023/03/24 12:46:41;;;;;;;0.60;0.40;;;;;;;;;;4991172;28;20449;-69
2023/03/24 12:49:23;;;;;;;0.60;0.40;;;;;;;;;;4990962;28;20823;-68
2023/03/24 12:51:56;;;;;;;0.50;0.40;;;;;;;;;;4989268;28;20460;-68
2023/03/24 12:54:30;;;;;;;0.70;0.57;;;;;;;;;;4987914;28;20460;-68
2023/03/24 12:56:59;;;;;;;0.60;0.40;;;;;;;;;;4990340;28;20457;-68
2023/03/24 12:59:31;;;;;;;0.50;0.30;;;;;;;;;;4990285;28;20988;-68
2023/03/24 13:02:03;;;;;;;0.60;0.40;;;;;;;;;;4989135;28;20467;-69
2023/03/24 13:04:32;;;;;;;0.60;0.40;;;;;;;;;;4991941;28;20541;-68
2023/03/24 13:07:02;;;;;;;0.50;0.40;;;;;;;;;;4990538;28;20445;-68
2023/03/24 13:09:35;;;;;;;0.60;0.40;;;;;;;;;;4983302;28;20484;-68
2023/03/24 13:12:04;;;;;;;0.70;0.70;;;;;;;;;;4989549;28;20463;-67
2023/03/24 13:14:37;;;;;;;0.60;0.40;;;;;;;;;;4990101;28;20467;-67
2023/03/24 13:17:06;;;;;;;0.60;0.50;;;;;;;;;;4989204;28;20940;-68
2023/03/24 13:19:34;;;;;;;0.57;0.40;;;;;;;;;;4990507;28;20504;-68
2023/03/24 13:22:03;;;;;;;0.50;0.40;;;;;;;;;;4990027;28;20457;-72
2023/03/24 13:24:30;;;;;;;0.60;0.40;;;;;;;;;;4986250;28;20455;-70
2023/03/24 13:27:01;;;;;;;0.83;0.50;;;;;;;;;;4989484;28;20459;-72
2023/03/24 13:29:45;;;;;;;0.53;0.40;;;;;;;;;;4989989;28;20464;-70
2023/03/24 13:32:16;;;;;;;0.60;0.40;;;;;;;;;;4988817;28;20527;-69
2023/03/24 13:34:47;;;;;;;0.60;0.40;;;;;;;;;;4990149;28;20461;-69
2023/03/24 13:37:21;;;;;;;0.60;0.40;;;16.80;99.90;;;;;;4989692;28;20453;-71
2023/03/24 13:39:50;;;;;;;0.60;0.50;;;15.70;99.90;;;;;;4990659;28;20505;-69
2023/03/24 13:42:31;;;;;;;0.60;0.40;;;15.60;99.90;;;;;;4985461;28;20804;-68
2023/03/24 13:45:01;;;;;;;0.50;0.37;;;15.60;99.90;;;;;;4989482;28;20441;-69
2023/03/24 13:47:47;;;;;;;0.60;0.40;;;15.70;99.90;;;;;;4989316;28;20457;-68
2023/03/24 13:50:15;;;;;;;0.50;0.40;;;15.60;99.90;;;;;;4978304;28;20457;-67
2023/03/24 13:52:45;;;;;;;0.60;0.40;;;15.50;99.90;;;;;;4989644;28;20462;-68
2023/03/24 13:55:19;;;;;;;0.50;0.40;;;15.60;99.90;;;;;;4989514;28;20467;-68
2023/03/24 13:57:55;;;;;;;0.60;0.57;;;15.60;99.90;;;;;;4990662;28;20463;-68
2023/03/24 14:00:25;;;;;;;0.60;0.40;;;15.60;99.90;;;;;;4990699;28;20487;-68
2023/03/24 14:02:54;;;;;;;0.60;0.40;;;15.70;99.90;;;;;;4990197;28;20821;-70
2023/03/24 14:05:40;;;;;;;0.60;0.50;;;15.80;99.90;;;;;;4989774;28;20456;-69
2023/03/24 14:08:16;;;;;;;0.60;0.40;;;15.80;99.90;;;;;;4984125;28;20441;-69
2023/03/24 14:10:45;;;;;;;0.60;0.40;;;15.80;99.90;;;;;;4989509;28;20496;-69
2023/03/24 14:13:21;;;;;;;0.60;0.40;;;16.00;99.90;;;;;;4986384;28;20807;-69
2023/03/24 14:15:51;;;;;;;0.60;0.40;;;16.00;99.90;;;;;;4989425;28;20461;-70
2023/03/24 14:18:41;;;;;;;1.07;0.77;;;15.90;99.90;;;;;;4987956;28;20903;-71
2023/03/24 14:21:09;;;;;;;0.60;0.50;;;15.90;99.90;;;;;;4979336;28;20452;-70
2023/03/24 14:23:38;;;;;;;0.60;0.50;;;15.80;99.90;;;;;;4989433;28;20452;-69
2023/03/24 14:26:06;;;;;;;0.70;0.50;;;15.70;99.90;;;;;;4988500;28;20452;-71
2023/03/24 14:28:37;;;;;;;1.07;0.83;;;;;;;;;;4988480;28;20457;-69
2023/03/24 14:31:11;;;;;;;0.60;0.40;;;;;;;;;;4988570;28;20820;-70
2023/03/24 14:33:39;;;;;;;0.80;0.60;;;;;;;;;;4989360;28;20456;-71
2023/03/24 14:36:10;;;;;;;0.67;0.40;;;;;;;;;;4988281;28;20460;-70
2023/03/24 14:38:40;;;;;;;0.60;0.40;;;;;;;;;;4989084;28;20842;-76
2023/03/24 14:41:09;;;;;;;0.60;0.40;;;;;;;;;;4988886;28;20468;-74
2023/03/24 14:44:04;;;;;;;0.70;0.50;;;;;;;;;;4988542;28;20456;-73
2023/03/24 14:46:37;;;;;;;0.60;0.40;;;;;;;;;;4952950;28;20481;-74
2023/03/24 14:49:06;;;;;;;0.60;0.40;;;;;;;;;;4984431;28;20453;-73